sensor_id;sensor_type;location;lat;lon;timestamp;pressure;altitude;pressure_sealevel;temperature;humidity
33845;BME280;20145;43.118;25.694;2022-11-18T00:00:50;98450.97;;;10.97;86.85
33845;BME280;20145;43.118;25.694;2022-11-18T00:03:16;98442.50;;;10.93;86.89
33845;BME280;20145;43.118;25.694;2022-11-18T00:05:42;98453.63;;;10.96;87.05
33845;BME280;20145;43.118;25.694;2022-11-18T00:08:08;98451.69;;;11.02;87.72
33845;BME280;20145;43.118;25.694;2022-11-18T00:10:36;98453.78;;;11.19;87.74
33845;BME280;20145;43.118;25.694;2022-11-18T00:13:01;98461.19;;;11.30;88.83
33845;BME280;20145;43.118;25.694;2022-11-18T00:15:46;98455.72;;;11.41;88.76
33845;BME280;20145;43.118;25.694;2022-11-18T00:18:12;98459.19;;;11.39;87.63
33845;BME280;20145;43.118;25.694;2022-11-18T00:20:37;98454.03;;;11.39;88.50
33845;BME280;20145;43.118;25.694;2022-11-18T00:23:03;98452.06;;;11.48;88.34
33845;BME280;20145;43.118;25.694;2022-11-18T00:25:29;98460.41;;;11.56;88.62
33845;BME280;20145;43.118;25.694;2022-11-18T00:27:55;98459.38;;;11.61;88.32
33845;BME280;20145;43.118;25.694;2022-11-18T00:30:20;98462.50;;;11.71;87.53
33845;BME280;20145;43.118;25.694;2022-11-18T00:32:46;98461.56;;;11.74;86.96
33845;BME280;20145;43.118;25.694;2022-11-18T00:35:11;98464.09;;;11.75;87.57
33845;BME280;20145;43.118;25.694;2022-11-18T00:37:36;98467.22;;;11.85;87.01
33845;BME280;20145;43.118;25.694;2022-11-18T00:40:02;98463.63;;;11.91;85.86
33845;BME280;20145;43.118;25.694;2022-11-18T00:42:27;98461.22;;;11.84;85.47
33845;BME280;20145;43.118;25.694;2022-11-18T00:45:11;98465.88;;;11.73;86.46
33845;BME280;20145;43.118;25.694;2022-11-18T00:47:36;98462.47;;;11.73;86.38
33845;BME280;20145;43.118;25.694;2022-11-18T00:50:02;98460.00;;;11.68;85.73
33845;BME280;20145;43.118;25.694;2022-11-18T00:52:27;98457.56;;;11.64;86.54
33845;BME280;20145;43.118;25.694;2022-11-18T00:54:53;98456.72;;;11.63;87.02
33845;BME280;20145;43.118;25.694;2022-11-18T00:57:18;98454.31;;;11.58;85.67
33845;BME280;20145;43.118;25.694;2022-11-18T00:59:44;98449.31;;;11.52;86.52
33845;BME280;20145;43.118;25.694;2022-11-18T01:02:09;98456.63;;;11.39;85.81
33845;BME280;20145;43.118;25.694;2022-11-18T01:04:34;98451.50;;;11.38;86.55
33845;BME280;20145;43.118;25.694;2022-11-18T01:07:00;98447.25;;;11.35;87.75
33845;BME280;20145;43.118;25.694;2022-11-18T01:09:25;98455.09;;;11.32;86.99
33845;BME280;20145;43.118;25.694;2022-11-18T01:11:51;98463.84;;;11.28;87.00
33845;BME280;20145;43.118;25.694;2022-11-18T01:14:34;98452.09;;;11.18;88.23
33845;BME280;20145;43.118;25.694;2022-11-18T01:17:00;98441.97;;;11.12;88.63
33845;BME280;20145;43.118;25.694;2022-11-18T01:19:25;98449.03;;;11.05;88.00
33845;BME280;20145;43.118;25.694;2022-11-18T01:21:51;98454.34;;;11.01;88.97
33845;BME280;20145;43.118;25.694;2022-11-18T01:24:16;98448.50;;;10.94;89.95
33845;BME280;20145;43.118;25.694;2022-11-18T01:26:41;98444.34;;;10.88;88.48
33845;BME280;20145;43.118;25.694;2022-11-18T01:29:07;98437.53;;;10.86;89.07
33845;BME280;20145;43.118;25.694;2022-11-18T01:31:32;98440.38;;;10.78;89.20
33845;BME280;20145;43.118;25.694;2022-11-18T01:33:58;98436.25;;;10.71;87.94
33845;BME280;20145;43.118;25.694;2022-11-18T01:36:24;98438.19;;;10.64;87.90
33845;BME280;20145;43.118;25.694;2022-11-18T01:38:51;98425.41;;;10.60;88.77
33845;BME280;20145;43.118;25.694;2022-11-18T01:41:17;98426.38;;;10.56;89.90
33845;BME280;20145;43.118;25.694;2022-11-18T01:43:50;98428.19;;;10.52;88.84
33845;BME280;20145;43.118;25.694;2022-11-18T01:46:16;98428.47;;;10.41;89.33
33845;BME280;20145;43.118;25.694;2022-11-18T01:48:42;98426.19;;;10.31;88.45
33845;BME280;20145;43.118;25.694;2022-11-18T01:51:08;98426.31;;;10.26;88.91
33845;BME280;20145;43.118;25.694;2022-11-18T01:53:40;98430.72;;;10.21;89.25
33845;BME280;20145;43.118;25.694;2022-11-18T01:56:07;98429.06;;;10.18;89.25
33845;BME280;20145;43.118;25.694;2022-11-18T02:00:58;98421.59;;;10.09;89.65
33845;BME280;20145;43.118;25.694;2022-11-18T02:03:24;98425.03;;;10.08;89.36
33845;BME280;20145;43.118;25.694;2022-11-18T02:05:51;98419.03;;;10.08;88.77
33845;BME280;20145;43.118;25.694;2022-11-18T02:08:17;98419.94;;;10.07;89.85
33845;BME280;20145;43.118;25.694;2022-11-18T02:10:43;98419.84;;;10.10;89.42
33845;BME280;20145;43.118;25.694;2022-11-18T02:13:09;98409.50;;;10.11;90.99
33845;BME280;20145;43.118;25.694;2022-11-18T02:21:11;98411.38;;;10.04;90.63
33845;BME280;20145;43.118;25.694;2022-11-18T02:23:48;98404.66;;;9.99;89.61
33845;BME280;20145;43.118;25.694;2022-11-18T02:31:32;98398.97;;;9.86;90.11
33845;BME280;20145;43.118;25.694;2022-11-18T02:34:05;98390.53;;;9.81;90.06
33845;BME280;20145;43.118;25.694;2022-11-18T02:39:07;98400.06;;;9.77;91.44
33845;BME280;20145;43.118;25.694;2022-11-18T02:41:34;98398.28;;;9.81;91.84
33845;BME280;20145;43.118;25.694;2022-11-18T02:44:03;98394.91;;;9.77;92.17
33845;BME280;20145;43.118;25.694;2022-11-18T02:46:30;98398.28;;;9.79;92.24
33845;BME280;20145;43.118;25.694;2022-11-18T02:48:57;98398.13;;;9.86;91.61
33845;BME280;20145;43.118;25.694;2022-11-18T02:51:24;98403.19;;;9.90;92.87
33845;BME280;20145;43.118;25.694;2022-11-18T02:53:51;98398.88;;;9.89;91.12
33845;BME280;20145;43.118;25.694;2022-11-18T02:56:19;98410.28;;;9.80;91.03
33845;BME280;20145;43.118;25.694;2022-11-18T02:58:45;98407.88;;;9.74;91.76
33845;BME280;20145;43.118;25.694;2022-11-18T03:01:17;98411.41;;;9.70;90.88
33845;BME280;20145;43.118;25.694;2022-11-18T03:03:44;98411.50;;;9.66;90.86
33845;BME280;20145;43.118;25.694;2022-11-18T03:08:46;98416.97;;;9.53;90.13
33845;BME280;20145;43.118;25.694;2022-11-18T03:11:16;98417.84;;;9.52;90.92
33845;BME280;20145;43.118;25.694;2022-11-18T03:13:47;98418.81;;;9.48;90.70
33845;BME280;20145;43.118;25.694;2022-11-18T03:16:19;98403.44;;;9.45;90.07
33845;BME280;20145;43.118;25.694;2022-11-18T03:18:51;98414.72;;;9.40;89.69
33845;BME280;20145;43.118;25.694;2022-11-18T03:24:15;98416.81;;;9.24;90.13
33845;BME280;20145;43.118;25.694;2022-11-18T03:26:45;98416.06;;;9.17;89.78
33845;BME280;20145;43.118;25.694;2022-11-18T03:29:16;98408.44;;;9.14;89.00
33845;BME280;20145;43.118;25.694;2022-11-18T03:31:44;98417.19;;;9.07;88.89
33845;BME280;20145;43.118;25.694;2022-11-18T03:34:27;98419.09;;;8.97;88.70
33845;BME280;20145;43.118;25.694;2022-11-18T03:36:55;98420.97;;;8.89;88.50
33845;BME280;20145;43.118;25.694;2022-11-18T03:39:22;98418.59;;;8.81;89.42
33845;BME280;20145;43.118;25.694;2022-11-18T03:41:50;98419.47;;;8.80;89.94
33845;BME280;20145;43.118;25.694;2022-11-18T03:44:19;98411.78;;;8.79;89.41
33845;BME280;20145;43.118;25.694;2022-11-18T03:46:58;98417.84;;;8.75;90.09
33845;BME280;20145;43.118;25.694;2022-11-18T03:49:29;98418.75;;;8.72;89.83
33845;BME280;20145;43.118;25.694;2022-11-18T03:51:57;98409.53;;;8.63;89.83
33845;BME280;20145;43.118;25.694;2022-11-18T03:54:45;98409.66;;;8.57;89.68
33845;BME280;20145;43.118;25.694;2022-11-18T03:57:14;98410.69;;;8.48;89.90
33845;BME280;20145;43.118;25.694;2022-11-18T03:59:44;98412.56;;;8.40;89.13
33845;BME280;20145;43.118;25.694;2022-11-18T04:02:14;98402.41;;;8.31;89.40
33845;BME280;20145;43.118;25.694;2022-11-18T04:04:40;98404.28;;;8.23;89.80
33845;BME280;20145;43.118;25.694;2022-11-18T04:09:40;98415.47;;;8.20;91.04
33845;BME280;20145;43.118;25.694;2022-11-18T04:12:07;98412.84;;;8.23;91.00
33845;BME280;20145;43.118;25.694;2022-11-18T04:14:36;98416.31;;;8.21;90.60
33845;BME280;20145;43.118;25.694;2022-11-18T04:17:09;98418.00;;;8.22;91.28
33845;BME280;20145;43.118;25.694;2022-11-18T04:19:34;98411.91;;;8.27;91.63
33845;BME280;20145;43.118;25.694;2022-11-18T04:22:00;98417.94;;;8.25;90.29
33845;BME280;20145;43.118;25.694;2022-11-18T04:24:26;98416.38;;;8.18;89.35
33845;BME280;20145;43.118;25.694;2022-11-18T04:26:51;98414.72;;;8.15;90.50
33845;BME280;20145;43.118;25.694;2022-11-18T04:29:16;98415.56;;;8.16;92.09
33845;BME280;20145;43.118;25.694;2022-11-18T04:31:42;98413.88;;;8.13;90.99
33845;BME280;20145;43.118;25.694;2022-11-18T04:34:08;98414.13;;;8.01;91.06
33845;BME280;20145;43.118;25.694;2022-11-18T04:36:34;98423.63;;;7.96;91.57
33845;BME280;20145;43.118;25.694;2022-11-18T04:38:59;98414.16;;;7.98;91.66
33845;BME280;20145;43.118;25.694;2022-11-18T04:41:25;98410.88;;;7.90;91.28
33845;BME280;20145;43.118;25.694;2022-11-18T04:44:10;98404.94;;;7.88;91.38
33845;BME280;20145;43.118;25.694;2022-11-18T04:46:38;98408.34;;;7.88;90.63
33845;BME280;20145;43.118;25.694;2022-11-18T04:49:03;98407.56;;;7.85;89.75
33845;BME280;20145;43.118;25.694;2022-11-18T04:51:29;98412.66;;;7.86;90.85
33845;BME280;20145;43.118;25.694;2022-11-18T04:53:54;98413.47;;;7.88;91.82
33845;BME280;20145;43.118;25.694;2022-11-18T04:56:19;98406.63;;;7.89;91.98
33845;BME280;20145;43.118;25.694;2022-11-18T04:58:46;98411.09;;;7.77;91.19
33845;BME280;20145;43.118;25.694;2022-11-18T05:01:11;98415.44;;;7.74;91.19
33845;BME280;20145;43.118;25.694;2022-11-18T05:03:36;98417.97;;;7.77;91.79
33845;BME280;20145;43.118;25.694;2022-11-18T05:06:02;98414.50;;;7.79;91.67
33845;BME280;20145;43.118;25.694;2022-11-18T05:08:27;98410.13;;;7.83;93.20
33845;BME280;20145;43.118;25.694;2022-11-18T05:10:53;98410.06;;;7.88;93.61
33845;BME280;20145;43.118;25.694;2022-11-18T05:13:39;98421.25;;;7.85;92.00
33845;BME280;20145;43.118;25.694;2022-11-18T05:16:04;98420.47;;;7.78;92.17
33845;BME280;20145;43.118;25.694;2022-11-18T05:18:30;98426.38;;;7.83;91.81
33845;BME280;20145;43.118;25.694;2022-11-18T05:20:55;98417.78;;;7.88;92.56
33845;BME280;20145;43.118;25.694;2022-11-18T05:23:20;98416.09;;;7.85;92.46
33845;BME280;20145;43.118;25.694;2022-11-18T05:25:46;98425.53;;;7.83;92.79
33845;BME280;20145;43.118;25.694;2022-11-18T05:28:11;98416.06;;;7.87;92.73
33845;BME280;20145;43.118;25.694;2022-11-18T05:30:36;98410.97;;;7.85;92.32
33845;BME280;20145;43.118;25.694;2022-11-18T05:33:02;98420.41;;;7.83;92.32
33845;BME280;20145;43.118;25.694;2022-11-18T05:35:27;98419.50;;;7.87;93.17
33845;BME280;20145;43.118;25.694;2022-11-18T05:37:53;98417.66;;;7.95;93.11
33845;BME280;20145;43.118;25.694;2022-11-18T05:40:18;98430.44;;;7.98;93.34
33845;BME280;20145;43.118;25.694;2022-11-18T05:42:44;98413.16;;;8.07;92.78
33845;BME280;20145;43.118;25.694;2022-11-18T05:45:27;98420.78;;;8.11;92.66
33845;BME280;20145;43.118;25.694;2022-11-18T05:47:53;98421.66;;;8.10;91.62
33845;BME280;20145;43.118;25.694;2022-11-18T05:50:24;98422.47;;;8.12;92.58
33845;BME280;20145;43.118;25.694;2022-11-18T05:52:50;98415.44;;;8.22;92.88
33845;BME280;20145;43.118;25.694;2022-11-18T05:55:15;98424.69;;;8.31;93.63
33845;BME280;20145;43.118;25.694;2022-11-18T05:57:41;98422.03;;;8.35;92.70
33845;BME280;20145;43.118;25.694;2022-11-18T06:00:07;98421.94;;;8.43;93.57
33845;BME280;20145;43.118;25.694;2022-11-18T06:02:33;98420.06;;;8.51;93.08
33845;BME280;20145;43.118;25.694;2022-11-18T06:04:58;98427.56;;;8.62;92.93
33845;BME280;20145;43.118;25.694;2022-11-18T06:07:27;98423.91;;;8.74;93.41
33845;BME280;20145;43.118;25.694;2022-11-18T06:09:55;98413.31;;;8.87;93.67
33845;BME280;20145;43.118;25.694;2022-11-18T06:12:22;98424.25;;;8.97;93.03
33845;BME280;20145;43.118;25.694;2022-11-18T06:14:54;98419.63;;;9.11;93.79
33845;BME280;20145;43.118;25.694;2022-11-18T06:17:24;98421.13;;;9.22;92.84
33845;BME280;20145;43.118;25.694;2022-11-18T06:19:52;98414.81;;;9.35;93.53
33845;BME280;20145;43.118;25.694;2022-11-18T06:22:17;98422.22;;;9.49;94.68
33845;BME280;20145;43.118;25.694;2022-11-18T06:24:43;98418.50;;;9.60;94.73
33845;BME280;20145;43.118;25.694;2022-11-18T06:27:09;98413.78;;;9.78;94.76
33845;BME280;20145;43.118;25.694;2022-11-18T06:29:34;98406.56;;;9.92;95.32
33845;BME280;20145;43.118;25.694;2022-11-18T06:32:00;98414.63;;;10.11;94.87
33845;BME280;20145;43.118;25.694;2022-11-18T06:34:25;98410.72;;;10.31;95.31
33845;BME280;20145;43.118;25.694;2022-11-18T06:36:50;98415.25;;;10.54;94.60
33845;BME280;20145;43.118;25.694;2022-11-18T06:39:16;98409.53;;;10.74;93.99
33845;BME280;20145;43.118;25.694;2022-11-18T06:41:41;98415.97;;;10.88;94.07
33845;BME280;20145;43.118;25.694;2022-11-18T06:44:06;98414.72;;;11.02;93.79
33845;BME280;20145;43.118;25.694;2022-11-18T06:46:32;98409.97;;;11.16;92.18
33845;BME280;20145;43.118;25.694;2022-11-18T06:49:16;98408.31;;;11.15;91.77
33845;BME280;20145;43.118;25.694;2022-11-18T06:51:41;98416.78;;;11.19;90.08
33845;BME280;20145;43.118;25.694;2022-11-18T06:54:07;98413.34;;;11.20;90.89
33845;BME280;20145;43.118;25.694;2022-11-18T06:56:33;98412.38;;;11.22;91.14
33845;BME280;20145;43.118;25.694;2022-11-18T06:58:58;98402.75;;;11.27;91.58
33845;BME280;20145;43.118;25.694;2022-11-18T07:01:25;98409.44;;;11.34;91.50
33845;BME280;20145;43.118;25.694;2022-11-18T07:03:50;98405.94;;;11.35;90.55
33845;BME280;20145;43.118;25.694;2022-11-18T07:06:17;98408.41;;;11.38;91.71
33845;BME280;20145;43.118;25.694;2022-11-18T07:08:43;98410.03;;;11.43;91.45
33845;BME280;20145;43.118;25.694;2022-11-18T07:11:09;98413.25;;;11.49;91.78
33845;BME280;20145;43.118;25.694;2022-11-18T07:13:35;98407.75;;;11.60;90.56
33845;BME280;20145;43.118;25.694;2022-11-18T07:16:04;98409.19;;;11.69;91.64
33845;BME280;20145;43.118;25.694;2022-11-18T07:18:30;98414.06;;;11.78;91.38
33845;BME280;20145;43.118;25.694;2022-11-18T07:20:56;98412.09;;;11.84;89.83
33845;BME280;20145;43.118;25.694;2022-11-18T07:23:21;98419.44;;;11.98;90.65
33845;BME280;20145;43.118;25.694;2022-11-18T07:25:47;98424.34;;;12.06;89.93
33845;BME280;20145;43.118;25.694;2022-11-18T07:28:12;98420.59;;;12.15;90.25
33845;BME280;20145;43.118;25.694;2022-11-18T07:30:38;98414.31;;;12.22;89.16
33845;BME280;20145;43.118;25.694;2022-11-18T07:33:03;98414.03;;;12.30;89.24
33845;BME280;20145;43.118;25.694;2022-11-18T07:35:28;98412.88;;;12.38;89.81
33845;BME280;20145;43.118;25.694;2022-11-18T07:37:54;98417.75;;;12.47;90.36
33845;BME280;20145;43.118;25.694;2022-11-18T07:40:19;98414.94;;;12.54;88.88
33845;BME280;20145;43.118;25.694;2022-11-18T07:42:44;98408.69;;;12.59;89.84
33845;BME280;20145;43.118;25.694;2022-11-18T07:45:10;98398.91;;;12.67;88.91
33845;BME280;20145;43.118;25.694;2022-11-18T07:47:36;98396.91;;;12.74;89.19
33845;BME280;20145;43.118;25.694;2022-11-18T07:50:02;98389.69;;;12.82;86.85
33845;BME280;20145;43.118;25.694;2022-11-18T07:52:27;98400.44;;;12.95;87.48
33845;BME280;20145;43.118;25.694;2022-11-18T07:54:53;98393.84;;;13.10;86.37
33845;BME280;20145;43.118;25.694;2022-11-18T07:57:18;98388.19;;;13.22;86.93
33845;BME280;20145;43.118;25.694;2022-11-18T07:59:43;98385.97;;;13.35;86.30
33845;BME280;20145;43.118;25.694;2022-11-18T08:02:12;98379.53;;;13.45;86.26
33845;BME280;20145;43.118;25.694;2022-11-18T08:04:38;98381.72;;;13.54;85.75
33845;BME280;20145;43.118;25.694;2022-11-18T08:07:03;98387.31;;;13.66;85.88
33845;BME280;20145;43.118;25.694;2022-11-18T08:09:29;98381.03;;;13.71;87.30
33845;BME280;20145;43.118;25.694;2022-11-18T08:11:54;98380.72;;;13.79;85.90
33845;BME280;20145;43.118;25.694;2022-11-18T08:14:19;98382.09;;;13.88;87.03
33845;BME280;20145;43.118;25.694;2022-11-18T08:16:48;98388.75;;;13.93;86.45
33845;BME280;20145;43.118;25.694;2022-11-18T08:19:13;98379.81;;;14.00;84.81
33845;BME280;20145;43.118;25.694;2022-11-18T08:21:39;98381.13;;;14.11;85.31
33845;BME280;20145;43.118;25.694;2022-11-18T08:24:04;98390.25;;;14.19;85.11
33845;BME280;20145;43.118;25.694;2022-11-18T08:26:30;98382.91;;;14.29;85.40
33845;BME280;20145;43.118;25.694;2022-11-18T08:28:55;98379.00;;;14.39;84.79
33845;BME280;20145;43.118;25.694;2022-11-18T08:31:22;98375.03;;;14.51;85.04
33845;BME280;20145;43.118;25.694;2022-11-18T08:33:52;98381.44;;;14.63;84.46
33845;BME280;20145;43.118;25.694;2022-11-18T08:36:20;98381.78;;;14.74;84.69
33845;BME280;20145;43.118;25.694;2022-11-18T08:38:46;98385.81;;;14.81;83.72
33845;BME280;20145;43.118;25.694;2022-11-18T08:41:12;98384.47;;;14.91;84.65
33845;BME280;20145;43.118;25.694;2022-11-18T08:43:38;98384.03;;;15.01;84.26
33845;BME280;20145;43.118;25.694;2022-11-18T08:46:04;98379.28;;;15.10;83.44
33845;BME280;20145;43.118;25.694;2022-11-18T08:48:29;98390.00;;;15.22;84.18
33845;BME280;20145;43.118;25.694;2022-11-18T08:50:55;98379.31;;;15.28;84.00
33845;BME280;20145;43.118;25.694;2022-11-18T08:53:21;98386.75;;;15.35;82.60
33845;BME280;20145;43.118;25.694;2022-11-18T08:55:47;98375.22;;;15.41;82.64
33845;BME280;20145;43.118;25.694;2022-11-18T08:58:13;98369.75;;;15.46;82.52
33845;BME280;20145;43.118;25.694;2022-11-18T09:00:38;98367.56;;;15.55;81.31
33845;BME280;20145;43.118;25.694;2022-11-18T09:03:04;98373.28;;;15.62;81.99
33845;BME280;20145;43.118;25.694;2022-11-18T09:05:29;98366.59;;;15.75;81.30
33845;BME280;20145;43.118;25.694;2022-11-18T09:07:54;98357.72;;;15.79;81.65
33845;BME280;20145;43.118;25.694;2022-11-18T09:10:20;98350.47;;;15.86;81.43
33845;BME280;20145;43.118;25.694;2022-11-18T09:12:45;98335.16;;;15.97;81.45
33845;BME280;20145;43.118;25.694;2022-11-18T09:15:11;98334.50;;;16.10;80.84
33845;BME280;20145;43.118;25.694;2022-11-18T09:17:36;98340.91;;;16.20;80.26
33845;BME280;20145;43.118;25.694;2022-11-18T09:20:02;98325.69;;;16.30;80.32
33845;BME280;20145;43.118;25.694;2022-11-18T09:22:27;98313.75;;;16.41;80.49
33845;BME280;20145;43.118;25.694;2022-11-18T09:24:52;98315.97;;;16.49;80.15
33845;BME280;20145;43.118;25.694;2022-11-18T09:27:18;98304.22;;;16.58;80.48
33845;BME280;20145;43.118;25.694;2022-11-18T09:29:44;98297.81;;;16.63;79.99
33845;BME280;20145;43.118;25.694;2022-11-18T09:32:09;98293.22;;;16.68;79.89
33845;BME280;20145;43.118;25.694;2022-11-18T09:34:34;98289.09;;;16.80;79.66
33845;BME280;20145;43.118;25.694;2022-11-18T09:37:01;98284.31;;;16.88;79.27
33845;BME280;20145;43.118;25.694;2022-11-18T09:39:27;98278.41;;;17.01;79.34
33845;BME280;20145;43.118;25.694;2022-11-18T09:44:22;98277.94;;;17.24;78.14
33845;BME280;20145;43.118;25.694;2022-11-18T09:51:51;98271.13;;;17.52;75.67
33845;BME280;20145;43.118;25.694;2022-11-18T09:54:20;98261.81;;;17.62;76.65
33845;BME280;20145;43.118;25.694;2022-11-18T09:56:47;98259.94;;;17.64;76.24
33845;BME280;20145;43.118;25.694;2022-11-18T09:59:12;98261.28;;;17.71;76.28
33845;BME280;20145;43.118;25.694;2022-11-18T10:01:39;98253.00;;;17.79;76.33
33845;BME280;20145;43.118;25.694;2022-11-18T10:04:10;98248.47;;;17.82;76.12
33845;BME280;20145;43.118;25.694;2022-11-18T10:06:36;98241.28;;;17.86;75.45
33845;BME280;20145;43.118;25.694;2022-11-18T10:16:44;98217.69;;;18.02;76.32
33845;BME280;20145;43.118;25.694;2022-11-18T10:19:21;98212.44;;;18.16;75.97
33845;BME280;20145;43.118;25.694;2022-11-18T10:21:59;98210.19;;;18.24;75.22
33845;BME280;20145;43.118;25.694;2022-11-18T10:24:44;98212.13;;;18.35;74.24
33845;BME280;20145;43.118;25.694;2022-11-18T10:27:13;98205.94;;;18.50;74.50
33845;BME280;20145;43.118;25.694;2022-11-18T10:29:39;98203.13;;;18.54;72.52
33845;BME280;20145;43.118;25.694;2022-11-18T10:34:34;98185.94;;;18.64;71.21
33845;BME280;20145;43.118;25.694;2022-11-18T10:39:59;98168.88;;;18.85;70.91
33845;BME280;20145;43.118;25.694;2022-11-18T10:44:50;98160.34;;;18.96;71.04
33845;BME280;20145;43.118;25.694;2022-11-18T10:49:41;98158.38;;;19.12;71.19
33845;BME280;20145;43.118;25.694;2022-11-18T10:52:07;98151.16;;;19.16;68.88
33845;BME280;20145;43.118;25.694;2022-11-18T10:54:37;98152.91;;;19.28;67.13
33845;BME280;20145;43.118;25.694;2022-11-18T11:02:00;98143.31;;;19.42;69.64
33845;BME280;20145;43.118;25.694;2022-11-18T11:04:27;98133.66;;;19.42;68.20
33845;BME280;20145;43.118;25.694;2022-11-18T11:06:55;98140.38;;;19.46;68.50
33845;BME280;20145;43.118;25.694;2022-11-18T11:09:27;98131.56;;;19.47;67.91
33845;BME280;20145;43.118;25.694;2022-11-18T11:14:50;98119.13;;;19.51;68.86
33845;BME280;20145;43.118;25.694;2022-11-18T11:20:20;98125.50;;;19.59;69.12
33845;BME280;20145;43.118;25.694;2022-11-18T11:22:45;98118.81;;;19.68;64.33
33845;BME280;20145;43.118;25.694;2022-11-18T11:25:14;98115.13;;;19.83;62.37
33845;BME280;20145;43.118;25.694;2022-11-18T11:30:21;98096.59;;;20.11;60.00
33845;BME280;20145;43.118;25.694;2022-11-18T11:35:39;98099.59;;;20.41;58.64
33845;BME280;20145;43.118;25.694;2022-11-18T11:46:07;98086.34;;;21.02;54.50
33845;BME280;20145;43.118;25.694;2022-11-18T11:51:53;98076.47;;;21.28;50.16
33845;BME280;20145;43.118;25.694;2022-11-18T11:56:48;98083.66;;;21.49;50.92
33845;BME280;20145;43.118;25.694;2022-11-18T12:02:03;98090.13;;;21.67;50.18
33845;BME280;20145;43.118;25.694;2022-11-18T12:04:43;98097.34;;;21.86;49.86
33845;BME280;20145;43.118;25.694;2022-11-18T12:07:15;98091.72;;;21.91;48.84
33845;BME280;20145;43.118;25.694;2022-11-18T12:10:03;98096.00;;;22.03;48.06
33845;BME280;20145;43.118;25.694;2022-11-18T12:12:36;98088.97;;;22.03;47.74
33845;BME280;20145;43.118;25.694;2022-11-18T12:15:10;98071.50;;;22.14;48.05
33845;BME280;20145;43.118;25.694;2022-11-18T12:18:03;98068.16;;;22.12;48.42
33845;BME280;20145;43.118;25.694;2022-11-18T12:20:42;98064.69;;;22.11;48.38
33845;BME280;20145;43.118;25.694;2022-11-18T12:30:47;98050.84;;;21.54;49.68
33845;BME280;20145;43.118;25.694;2022-11-18T12:33:13;98065.63;;;21.33;49.86
33845;BME280;20145;43.118;25.694;2022-11-18T12:35:39;98067.75;;;21.16;50.32
33845;BME280;20145;43.118;25.694;2022-11-18T12:38:26;98067.28;;;21.11;52.15
33845;BME280;20145;43.118;25.694;2022-11-18T12:40:52;98058.72;;;21.09;51.98
33845;BME280;20145;43.118;25.694;2022-11-18T12:49:48;98061.09;;;21.24;51.52
33845;BME280;20145;43.118;25.694;2022-11-18T12:51:44;98049.16;;;21.20;51.40
33845;BME280;20145;43.118;25.694;2022-11-18T12:54:14;98052.75;;;21.07;51.29
33845;BME280;20145;43.118;25.694;2022-11-18T12:56:44;98053.91;;;21.03;51.79
33845;BME280;20145;43.118;25.694;2022-11-18T12:59:12;98051.78;;;20.97;52.78
33845;BME280;20145;43.118;25.694;2022-11-18T13:01:37;98051.28;;;20.92;53.03
33845;BME280;20145;43.118;25.694;2022-11-18T13:04:16;98047.97;;;20.90;52.53
33845;BME280;20145;43.118;25.694;2022-11-18T13:06:44;98054.81;;;20.68;52.75
33845;BME280;20145;43.118;25.694;2022-11-18T13:09:16;98044.19;;;20.59;54.16
33845;BME280;20145;43.118;25.694;2022-11-18T13:11:49;98042.13;;;20.51;54.07
33845;BME280;20145;43.118;25.694;2022-11-18T13:14:18;98040.81;;;20.45;54.35
33845;BME280;20145;43.118;25.694;2022-11-18T13:17:21;98038.00;;;20.36;54.46
33845;BME280;20145;43.118;25.694;2022-11-18T13:20:17;98036.59;;;20.32;54.40
33845;BME280;20145;43.118;25.694;2022-11-18T13:22:47;98030.03;;;20.26;54.38
33845;BME280;20145;43.118;25.694;2022-11-18T13:25:31;98009.44;;;20.09;53.95
33845;BME280;20145;43.118;25.694;2022-11-18T13:28:00;98018.53;;;19.92;55.56
33845;BME280;20145;43.118;25.694;2022-11-18T13:30:27;98019.44;;;19.79;56.08
33845;BME280;20145;43.118;25.694;2022-11-18T13:32:54;98021.88;;;19.70;55.93
33845;BME280;20145;43.118;25.694;2022-11-18T13:35:22;98015.50;;;19.61;56.33
33845;BME280;20145;43.118;25.694;2022-11-18T13:37:52;98014.38;;;19.52;56.04
33845;BME280;20145;43.118;25.694;2022-11-18T13:40:19;98015.72;;;19.45;56.85
33845;BME280;20145;43.118;25.694;2022-11-18T13:42:45;98016.78;;;19.43;56.88
33845;BME280;20145;43.118;25.694;2022-11-18T13:45:11;98017.75;;;19.42;56.88
33845;BME280;20145;43.118;25.694;2022-11-18T13:47:39;98018.47;;;19.44;56.97
33845;BME280;20145;43.118;25.694;2022-11-18T13:54:56;98004.06;;;19.38;56.79
33845;BME280;20145;43.118;25.694;2022-11-18T13:57:24;98004.38;;;19.33;57.39
33845;BME280;20145;43.118;25.694;2022-11-18T13:59:50;97997.91;;;19.26;58.01
33845;BME280;20145;43.118;25.694;2022-11-18T14:02:17;97998.22;;;19.22;56.91
33845;BME280;20145;43.118;25.694;2022-11-18T14:04:50;98003.06;;;19.15;56.41
33845;BME280;20145;43.118;25.694;2022-11-18T14:09:52;98012.91;;;18.99;55.69
33845;BME280;20145;43.118;25.694;2022-11-18T14:14:43;98001.19;;;18.79;55.26
33845;BME280;20145;43.118;25.694;2022-11-18T14:17:23;98009.53;;;18.71;56.24
33845;BME280;20145;43.118;25.694;2022-11-18T14:19:49;98016.31;;;18.61;56.39
33845;BME280;20145;43.118;25.694;2022-11-18T14:22:16;98019.44;;;18.53;55.91
33845;BME280;20145;43.118;25.694;2022-11-18T14:24:42;98018.19;;;18.46;56.26
33845;BME280;20145;43.118;25.694;2022-11-18T14:29:53;98018.06;;;18.35;57.36
33845;BME280;20145;43.118;25.694;2022-11-18T14:32:18;98015.75;;;18.30;58.04
33845;BME280;20145;43.118;25.694;2022-11-18T14:34:43;98007.16;;;18.28;58.08
33845;BME280;20145;43.118;25.694;2022-11-18T14:37:12;97977.69;;;18.26;59.26
33845;BME280;20145;43.118;25.694;2022-11-18T14:39:38;97971.44;;;18.28;60.81
33845;BME280;20145;43.118;25.694;2022-11-18T14:42:04;97979.81;;;18.34;62.22
33845;BME280;20145;43.118;25.694;2022-11-18T14:44:31;97963.22;;;18.35;62.22